Time;durP1;ratioP1;P1;durP2;ratioP2;P2;SDS_P1;SDS_P2;PMS_P1;PMS_P2;Temp;Humidity;BMP_temperature;BMP_pressure;BME280_temperature;BME280_humidity;BME280_pressure;Samples;Min_cycle;Max_cycle;Signal;HPM_P1;HPM_P2
2022/03/18 00:02:23;;;;;;;;;;;4.80;74.60;;;;;;5136080;27;19911;-68
2022/03/18 00:04:50;;;;;;;;;;;4.80;73.60;;;;;;5135566;27;20313;-68
2022/03/18 00:07:16;;;;;;;;;;;4.80;73.10;;;;;;5117553;27;19977;-68
2022/03/18 00:09:42;;;;;;;;;;;4.80;72.90;;;;;;5116769;27;20371;-68
2022/03/18 00:12:08;;;;;;;;;;;4.60;71.60;;;;;;5135926;27;19958;-68
2022/03/18 00:14:34;;;;;;;;;;;4.50;73.10;;;;;;5136049;27;19949;-68
2022/03/18 00:17:00;;;;;;;;;;;4.50;75.30;;;;;;5134991;27;19974;-68
2022/03/18 00:19:27;;;;;;;;;;;4.60;75.00;;;;;;5117340;27;19907;-68
2022/03/18 00:22:00;;;;;;;;;;;4.50;74.60;;;;;;5134929;27;19907;-68
2022/03/18 00:24:25;;;;;;;;;;;;;;;;;;5135683;27;20382;-68
2022/03/18 00:26:51;;;;;;;;;;;4.70;74.50;;;;;;5134567;27;19923;-68
2022/03/18 00:29:17;;;;;;;;;;;4.60;74.00;;;;;;5135512;27;19981;-68
2022/03/18 00:31:43;;;;;;;;;;;4.60;74.20;;;;;;5134730;27;19908;-68
2022/03/18 00:34:10;;;;;;;;;;;4.40;73.40;;;;;;5135479;27;19915;-68
2022/03/18 00:36:36;;;;;;;;;;;4.30;73.70;;;;;;5135451;27;19914;-68
2022/03/18 00:39:02;;;;;;;;;;;4.10;76.30;;;;;;5134618;27;19911;-69
2022/03/18 00:41:27;;;;;;;;;;;4.10;77.80;;;;;;5135316;27;19934;-68
2022/03/18 00:43:53;;;;;;;;;;;4.00;79.20;;;;;;5134514;27;19908;-68
2022/03/18 00:46:22;;;;;;;;;;;4.20;79.80;;;;;;5135446;27;19907;-68
2022/03/18 00:54:16;;;;;;;;;;;3.90;79.90;;;;;;5135503;27;19933;-68
2022/03/18 00:56:42;;;;;;;;;;;;;;;;;;5134441;27;19912;-71
2022/03/18 00:59:08;;;;;;;;;;;3.70;83.10;;;;;;5135001;27;19917;-68
2022/03/18 01:01:34;;;;;;;;;;;3.90;83.50;;;;;;5134958;27;20325;-68
2022/03/18 01:03:59;;;;;;;;;;;4.00;82.90;;;;;;5134100;27;20465;-68
2022/03/18 01:06:25;;;;;;;;;;;4.00;81.70;;;;;;5134858;27;20245;-68
2022/03/18 01:08:50;;;;;;;;;;;4.10;80.60;;;;;;5114761;27;19915;-68
2022/03/18 01:11:16;;;;;;;;;;;4.10;79.30;;;;;;5134732;27;20002;-68
2022/03/18 01:13:41;;;;;;;;;;;;;;;;;;5115948;27;19907;-71
2022/03/18 01:16:07;;;;;;;;;;;4.00;78.90;;;;;;5134518;27;19960;-68
2022/03/18 01:18:32;;;;;;;;;;;4.00;78.90;;;;;;5134598;27;19914;-68
2022/03/18 01:20:58;;;;;;;;;;;3.80;79.00;;;;;;5133751;27;19908;-68
2022/03/18 01:23:23;;;;;;;;;;;3.90;80.10;;;;;;5134482;27;19914;-68
2022/03/18 01:25:49;;;;;;;;;;;3.90;81.10;;;;;;5115181;27;19930;-68
2022/03/18 01:28:15;;;;;;;;;;;3.80;81.90;;;;;;5134057;27;19924;-68
2022/03/18 01:30:41;;;;;;;;;;;;;;;;;;5134248;27;20374;-70
2022/03/18 01:33:07;;;;;;;;;;;;;;;;;;5133901;27;19912;-68
2022/03/18 01:35:33;;;;;;;;;;;4.00;83.60;;;;;;5134253;27;19908;-68
2022/03/18 01:37:58;;;;;;;;;;;4.00;82.90;;;;;;5133453;27;19907;-68
2022/03/18 01:40:24;;;;;;;;;;;4.00;82.30;;;;;;5134182;27;19907;-68
2022/03/18 01:42:49;;;;;;;;;;;3.90;82.60;;;;;;5133311;27;19907;-68
2022/03/18 01:45:15;;;;;;;;;;;;;;;;;;5134105;27;20382;-68
2022/03/18 01:47:43;;;;;;;;;;;3.80;83.20;;;;;;5133973;27;19915;-68
2022/03/18 01:50:18;;;;;;;;;;;4.00;83.00;;;;;;5134007;27;20418;-68
2022/03/18 01:52:44;;;;;;;;;;;;;;;;;;5133624;27;19908;-71
2022/03/18 01:55:10;;;;;;;;;;;3.80;80.50;;;;;;5133647;27;19914;-68
2022/03/18 01:57:36;;;;;;;;;;;3.90;82.10;;;;;;5134122;27;19963;-68
2022/03/18 02:00:03;;;;;;;;;;;4.10;81.60;;;;;;5133051;27;19907;-68
2022/03/18 02:02:28;;;;;;;;;;;4.00;80.50;;;;;;5134053;27;19915;-68
2022/03/18 02:04:55;;;;;;;;;;;4.10;79.70;;;;;;5132960;27;19908;-68
2022/03/18 02:07:21;;;;;;;;;;;4.00;78.70;;;;;;5133686;27;19908;-68
2022/03/18 02:09:47;;;;;;;;;;;;;;;;;;5133205;27;19911;-71
2022/03/18 02:12:13;;;;;;;;;;;3.70;77.80;;;;;;5133697;27;20290;-68
2022/03/18 02:14:40;;;;;;;;;;;;;;;;;;5109479;28;19912;-68
2022/03/18 02:17:07;;;;;;;;;;;3.50;78.80;;;;;;5112391;28;19911;-68
2022/03/18 02:19:32;;;;;;;;;;;3.80;80.30;;;;;;5112600;28;20394;-68
2022/03/18 02:21:58;;;;;;;;;;;3.90;79.20;;;;;;5112231;28;19908;-68
2022/03/18 02:24:24;;;;;;;;;;;3.70;77.70;;;;;;5113088;28;19947;-69
2022/03/18 02:26:51;;;;;;;;;;;3.60;78.10;;;;;;5112065;28;19931;-69
2022/03/18 02:29:20;;;;;;;;;;;3.50;78.20;;;;;;5112845;28;19911;-69
